sensor_id;sensor_type;location;lat;lon;timestamp;temperature;humidity
36352;DHT22;22382;44.768;17.206;2024-01-06T00:00:23;9.20;99.90
36352;DHT22;22382;44.768;17.206;2024-01-06T00:02:50;9.10;99.90
36352;DHT22;22382;44.768;17.206;2024-01-06T00:05:17;9.10;99.90
36352;DHT22;22382;44.768;17.206;2024-01-06T00:07:46;9.10;99.90
36352;DHT22;22382;44.768;17.206;2024-01-06T00:10:14;9.10;99.90
36352;DHT22;22382;44.768;17.206;2024-01-06T00:12:44;9.00;99.90
36352;DHT22;22382;44.768;17.206;2024-01-06T00:15:11;9.00;99.90
36352;DHT22;22382;44.768;17.206;2024-01-06T00:17:39;9.00;99.90
36352;DHT22;22382;44.768;17.206;2024-01-06T00:20:07;9.00;99.90
36352;DHT22;22382;44.768;17.206;2024-01-06T00:22:34;9.00;99.90
36352;DHT22;22382;44.768;17.206;2024-01-06T00:25:02;9.00;99.90
36352;DHT22;22382;44.768;17.206;2024-01-06T00:27:29;9.00;99.90
36352;DHT22;22382;44.768;17.206;2024-01-06T00:29:57;9.00;99.90
36352;DHT22;22382;44.768;17.206;2024-01-06T00:32:24;8.90;99.90
36352;DHT22;22382;44.768;17.206;2024-01-06T00:34:51;9.00;99.90
36352;DHT22;22382;44.768;17.206;2024-01-06T00:37:18;9.00;99.90
36352;DHT22;22382;44.768;17.206;2024-01-06T00:39:45;9.00;99.90
36352;DHT22;22382;44.768;17.206;2024-01-06T00:42:13;8.90;99.90
36352;DHT22;22382;44.768;17.206;2024-01-06T00:44:40;8.90;99.90
36352;DHT22;22382;44.768;17.206;2024-01-06T00:47:07;8.90;99.90
36352;DHT22;22382;44.768;17.206;2024-01-06T00:49:34;8.80;99.90
36352;DHT22;22382;44.768;17.206;2024-01-06T00:52:02;8.80;99.90
36352;DHT22;22382;44.768;17.206;2024-01-06T00:54:29;8.90;99.90
36352;DHT22;22382;44.768;17.206;2024-01-06T00:56:56;8.80;99.90
36352;DHT22;22382;44.768;17.206;2024-01-06T00:59:24;8.90;99.90
36352;DHT22;22382;44.768;17.206;2024-01-06T01:01:52;8.80;99.90
36352;DHT22;22382;44.768;17.206;2024-01-06T01:04:19;8.80;99.90
36352;DHT22;22382;44.768;17.206;2024-01-06T01:06:47;8.80;99.90
36352;DHT22;22382;44.768;17.206;2024-01-06T01:09:14;8.80;99.90
36352;DHT22;22382;44.768;17.206;2024-01-06T01:11:41;8.80;99.90
36352;DHT22;22382;44.768;17.206;2024-01-06T01:14:09;8.70;99.90
36352;DHT22;22382;44.768;17.206;2024-01-06T01:16:36;8.70;99.90
36352;DHT22;22382;44.768;17.206;2024-01-06T01:19:03;8.70;99.90
36352;DHT22;22382;44.768;17.206;2024-01-06T01:21:31;8.60;99.90
36352;DHT22;22382;44.768;17.206;2024-01-06T01:23:58;8.70;99.90
36352;DHT22;22382;44.768;17.206;2024-01-06T01:26:25;8.60;99.90
36352;DHT22;22382;44.768;17.206;2024-01-06T01:28:53;8.50;99.90
36352;DHT22;22382;44.768;17.206;2024-01-06T01:31:20;8.40;99.90
36352;DHT22;22382;44.768;17.206;2024-01-06T01:33:47;8.50;99.90
36352;DHT22;22382;44.768;17.206;2024-01-06T01:36:15;8.50;99.90
36352;DHT22;22382;44.768;17.206;2024-01-06T01:38:42;8.50;99.90
36352;DHT22;22382;44.768;17.206;2024-01-06T01:41:09;8.50;99.90
36352;DHT22;22382;44.768;17.206;2024-01-06T01:43:36;8.50;99.90
36352;DHT22;22382;44.768;17.206;2024-01-06T01:46:03;8.40;99.90
36352;DHT22;22382;44.768;17.206;2024-01-06T01:48:31;8.50;99.90
36352;DHT22;22382;44.768;17.206;2024-01-06T01:51:01;8.50;99.90
36352;DHT22;22382;44.768;17.206;2024-01-06T01:53:29;8.40;99.90
36352;DHT22;22382;44.768;17.206;2024-01-06T01:55:58;8.40;99.90
36352;DHT22;22382;44.768;17.206;2024-01-06T01:58:25;8.40;99.90
36352;DHT22;22382;44.768;17.206;2024-01-06T02:00:53;8.30;99.90
36352;DHT22;22382;44.768;17.206;2024-01-06T02:03:22;8.30;99.90
36352;DHT22;22382;44.768;17.206;2024-01-06T02:05:51;8.30;99.90
36352;DHT22;22382;44.768;17.206;2024-01-06T02:08:18;8.30;99.90
36352;DHT22;22382;44.768;17.206;2024-01-06T02:10:45;8.30;99.90
36352;DHT22;22382;44.768;17.206;2024-01-06T02:13:13;8.30;99.90
36352;DHT22;22382;44.768;17.206;2024-01-06T02:15:40;8.30;99.90
36352;DHT22;22382;44.768;17.206;2024-01-06T02:18:07;8.20;99.90
36352;DHT22;22382;44.768;17.206;2024-01-06T02:20:35;8.20;99.90
36352;DHT22;22382;44.768;17.206;2024-01-06T02:23:02;8.30;99.90
36352;DHT22;22382;44.768;17.206;2024-01-06T02:25:30;8.20;99.90
36352;DHT22;22382;44.768;17.206;2024-01-06T02:27:57;8.10;99.90
36352;DHT22;22382;44.768;17.206;2024-01-06T02:30:24;8.10;99.90
36352;DHT22;22382;44.768;17.206;2024-01-06T02:32:51;8.10;99.90
36352;DHT22;22382;44.768;17.206;2024-01-06T02:35:20;8.20;99.90
36352;DHT22;22382;44.768;17.206;2024-01-06T02:37:47;8.20;99.90
36352;DHT22;22382;44.768;17.206;2024-01-06T02:40:15;8.30;99.90
36352;DHT22;22382;44.768;17.206;2024-01-06T02:42:42;8.30;99.90
36352;DHT22;22382;44.768;17.206;2024-01-06T02:45:09;8.30;99.90
36352;DHT22;22382;44.768;17.206;2024-01-06T02:47:37;8.30;99.90
36352;DHT22;22382;44.768;17.206;2024-01-06T02:50:05;8.30;99.90
36352;DHT22;22382;44.768;17.206;2024-01-06T02:52:32;8.30;99.90
36352;DHT22;22382;44.768;17.206;2024-01-06T02:54:59;8.40;99.90
36352;DHT22;22382;44.768;17.206;2024-01-06T02:57:29;8.40;99.90
36352;DHT22;22382;44.768;17.206;2024-01-06T02:59:57;8.30;99.90
36352;DHT22;22382;44.768;17.206;2024-01-06T03:02:24;8.30;99.90
36352;DHT22;22382;44.768;17.206;2024-01-06T03:04:51;8.30;99.90
36352;DHT22;22382;44.768;17.206;2024-01-06T03:07:19;8.20;99.90
36352;DHT22;22382;44.768;17.206;2024-01-06T03:09:46;8.20;99.90
36352;DHT22;22382;44.768;17.206;2024-01-06T03:12:14;8.20;99.90
36352;DHT22;22382;44.768;17.206;2024-01-06T03:14:41;8.20;99.90
36352;DHT22;22382;44.768;17.206;2024-01-06T03:17:08;8.20;99.90
36352;DHT22;22382;44.768;17.206;2024-01-06T03:19:38;8.20;99.90
36352;DHT22;22382;44.768;17.206;2024-01-06T03:22:05;8.20;99.90
36352;DHT22;22382;44.768;17.206;2024-01-06T03:24:32;8.30;99.90
36352;DHT22;22382;44.768;17.206;2024-01-06T03:27:00;8.30;99.90
36352;DHT22;22382;44.768;17.206;2024-01-06T03:29:27;8.30;99.90
36352;DHT22;22382;44.768;17.206;2024-01-06T03:31:54;8.30;99.90
36352;DHT22;22382;44.768;17.206;2024-01-06T03:34:21;8.40;99.90
36352;DHT22;22382;44.768;17.206;2024-01-06T03:36:49;8.20;99.90
36352;DHT22;22382;44.768;17.206;2024-01-06T03:39:16;8.30;99.90
36352;DHT22;22382;44.768;17.206;2024-01-06T03:41:43;8.20;99.90
36352;DHT22;22382;44.768;17.206;2024-01-06T03:44:10;8.10;99.90
36352;DHT22;22382;44.768;17.206;2024-01-06T03:46:37;8.10;99.90
36352;DHT22;22382;44.768;17.206;2024-01-06T03:49:04;8.00;99.90
36352;DHT22;22382;44.768;17.206;2024-01-06T03:51:32;8.00;99.90
36352;DHT22;22382;44.768;17.206;2024-01-06T03:53:59;8.00;99.90
36352;DHT22;22382;44.768;17.206;2024-01-06T03:56:26;8.00;99.90
36352;DHT22;22382;44.768;17.206;2024-01-06T03:58:53;8.00;99.90
36352;DHT22;22382;44.768;17.206;2024-01-06T04:01:20;8.00;99.90
36352;DHT22;22382;44.768;17.206;2024-01-06T04:03:48;8.10;99.90
36352;DHT22;22382;44.768;17.206;2024-01-06T04:06:15;8.10;99.90
36352;DHT22;22382;44.768;17.206;2024-01-06T04:08:43;8.00;99.90
36352;DHT22;22382;44.768;17.206;2024-01-06T04:11:10;8.20;99.90
36352;DHT22;22382;44.768;17.206;2024-01-06T04:13:37;8.20;99.90
36352;DHT22;22382;44.768;17.206;2024-01-06T04:16:04;8.10;99.90
36352;DHT22;22382;44.768;17.206;2024-01-06T04:18:32;8.00;99.90
36352;DHT22;22382;44.768;17.206;2024-01-06T04:20:59;8.10;99.90
36352;DHT22;22382;44.768;17.206;2024-01-06T04:23:27;8.00;99.90
36352;DHT22;22382;44.768;17.206;2024-01-06T04:25:54;8.10;99.90
36352;DHT22;22382;44.768;17.206;2024-01-06T04:28:21;8.10;99.90
36352;DHT22;22382;44.768;17.206;2024-01-06T04:30:48;8.00;99.90
36352;DHT22;22382;44.768;17.206;2024-01-06T04:33:15;7.90;99.90
36352;DHT22;22382;44.768;17.206;2024-01-06T04:35:43;7.90;99.90
36352;DHT22;22382;44.768;17.206;2024-01-06T04:38:10;7.90;99.90
36352;DHT22;22382;44.768;17.206;2024-01-06T04:40:37;7.90;99.90
36352;DHT22;22382;44.768;17.206;2024-01-06T04:43:04;7.80;99.90
36352;DHT22;22382;44.768;17.206;2024-01-06T04:45:31;7.90;99.90
36352;DHT22;22382;44.768;17.206;2024-01-06T04:47:59;7.80;99.90
36352;DHT22;22382;44.768;17.206;2024-01-06T04:50:26;7.90;99.90
36352;DHT22;22382;44.768;17.206;2024-01-06T04:52:53;7.90;99.90
36352;DHT22;22382;44.768;17.206;2024-01-06T04:55:20;7.90;99.90
36352;DHT22;22382;44.768;17.206;2024-01-06T04:57:49;7.90;99.90
36352;DHT22;22382;44.768;17.206;2024-01-06T05:00:16;7.90;99.90
36352;DHT22;22382;44.768;17.206;2024-01-06T05:02:44;7.90;99.90
36352;DHT22;22382;44.768;17.206;2024-01-06T05:05:11;7.70;99.90
36352;DHT22;22382;44.768;17.206;2024-01-06T05:07:39;7.70;99.90
36352;DHT22;22382;44.768;17.206;2024-01-06T05:10:07;7.70;99.90
36352;DHT22;22382;44.768;17.206;2024-01-06T05:12:34;7.80;99.90
36352;DHT22;22382;44.768;17.206;2024-01-06T05:15:01;7.70;99.90
36352;DHT22;22382;44.768;17.206;2024-01-06T05:17:29;7.80;99.90
36352;DHT22;22382;44.768;17.206;2024-01-06T05:19:56;7.90;99.90
36352;DHT22;22382;44.768;17.206;2024-01-06T05:22:24;7.90;99.90
36352;DHT22;22382;44.768;17.206;2024-01-06T05:24:51;7.90;99.90
36352;DHT22;22382;44.768;17.206;2024-01-06T05:27:20;7.70;99.90
36352;DHT22;22382;44.768;17.206;2024-01-06T05:29:47;7.70;99.90
36352;DHT22;22382;44.768;17.206;2024-01-06T05:32:16;7.90;99.90
36352;DHT22;22382;44.768;17.206;2024-01-06T05:34:45;7.80;99.90
36352;DHT22;22382;44.768;17.206;2024-01-06T05:37:12;7.90;99.90
36352;DHT22;22382;44.768;17.206;2024-01-06T05:39:40;7.90;99.90
36352;DHT22;22382;44.768;17.206;2024-01-06T05:42:09;7.80;99.90
36352;DHT22;22382;44.768;17.206;2024-01-06T05:44:40;7.90;99.90
36352;DHT22;22382;44.768;17.206;2024-01-06T05:47:07;8.00;99.90
36352;DHT22;22382;44.768;17.206;2024-01-06T05:49:35;8.10;99.90
36352;DHT22;22382;44.768;17.206;2024-01-06T05:52:02;8.00;99.90
36352;DHT22;22382;44.768;17.206;2024-01-06T05:54:30;8.00;99.90
36352;DHT22;22382;44.768;17.206;2024-01-06T05:56:57;7.90;99.90
36352;DHT22;22382;44.768;17.206;2024-01-06T05:59:24;7.90;99.90
36352;DHT22;22382;44.768;17.206;2024-01-06T06:01:52;7.90;99.90
36352;DHT22;22382;44.768;17.206;2024-01-06T06:04:19;7.90;99.90
36352;DHT22;22382;44.768;17.206;2024-01-06T06:06:46;8.00;99.90
36352;DHT22;22382;44.768;17.206;2024-01-06T06:09:13;8.00;99.90
36352;DHT22;22382;44.768;17.206;2024-01-06T06:11:41;8.00;99.90
36352;DHT22;22382;44.768;17.206;2024-01-06T06:14:08;7.90;99.90
36352;DHT22;22382;44.768;17.206;2024-01-06T06:16:36;7.90;99.90
36352;DHT22;22382;44.768;17.206;2024-01-06T06:19:03;7.80;99.90
36352;DHT22;22382;44.768;17.206;2024-01-06T06:21:30;7.80;99.90
36352;DHT22;22382;44.768;17.206;2024-01-06T06:23:58;7.80;99.90
36352;DHT22;22382;44.768;17.206;2024-01-06T06:26:25;7.90;99.90
36352;DHT22;22382;44.768;17.206;2024-01-06T06:28:52;8.00;99.90
36352;DHT22;22382;44.768;17.206;2024-01-06T06:31:20;7.90;99.90
36352;DHT22;22382;44.768;17.206;2024-01-06T06:33:47;8.00;99.90
36352;DHT22;22382;44.768;17.206;2024-01-06T06:36:14;7.90;99.90
36352;DHT22;22382;44.768;17.206;2024-01-06T06:38:42;8.00;99.90
36352;DHT22;22382;44.768;17.206;2024-01-06T06:41:09;8.00;99.90
36352;DHT22;22382;44.768;17.206;2024-01-06T06:43:36;8.00;99.90
36352;DHT22;22382;44.768;17.206;2024-01-06T06:46:03;8.10;99.90
36352;DHT22;22382;44.768;17.206;2024-01-06T06:48:31;8.10;99.90
36352;DHT22;22382;44.768;17.206;2024-01-06T06:50:58;8.20;99.90
36352;DHT22;22382;44.768;17.206;2024-01-06T06:53:25;8.20;99.90
36352;DHT22;22382;44.768;17.206;2024-01-06T06:55:52;8.30;99.90
36352;DHT22;22382;44.768;17.206;2024-01-06T06:58:19;8.30;99.90
36352;DHT22;22382;44.768;17.206;2024-01-06T07:00:46;8.30;99.90
36352;DHT22;22382;44.768;17.206;2024-01-06T07:03:14;8.30;99.90
36352;DHT22;22382;44.768;17.206;2024-01-06T07:05:41;8.40;99.90
36352;DHT22;22382;44.768;17.206;2024-01-06T07:08:09;8.50;99.90
36352;DHT22;22382;44.768;17.206;2024-01-06T07:10:36;8.50;99.90
36352;DHT22;22382;44.768;17.206;2024-01-06T07:13:03;8.50;99.90
36352;DHT22;22382;44.768;17.206;2024-01-06T07:15:30;8.50;99.90
36352;DHT22;22382;44.768;17.206;2024-01-06T07:17:57;8.60;99.90
36352;DHT22;22382;44.768;17.206;2024-01-06T07:20:25;8.60;99.90
36352;DHT22;22382;44.768;17.206;2024-01-06T07:22:52;8.70;99.90
36352;DHT22;22382;44.768;17.206;2024-01-06T07:25:19;8.70;99.90
36352;DHT22;22382;44.768;17.206;2024-01-06T07:27:47;8.80;99.90
36352;DHT22;22382;44.768;17.206;2024-01-06T07:30:14;8.80;99.90
36352;DHT22;22382;44.768;17.206;2024-01-06T07:32:41;8.90;99.90
36352;DHT22;22382;44.768;17.206;2024-01-06T07:35:09;8.90;99.90
36352;DHT22;22382;44.768;17.206;2024-01-06T07:37:36;8.90;99.90
36352;DHT22;22382;44.768;17.206;2024-01-06T07:40:04;8.80;99.90
36352;DHT22;22382;44.768;17.206;2024-01-06T07:42:31;8.90;99.90
36352;DHT22;22382;44.768;17.206;2024-01-06T07:44:58;8.90;99.90
36352;DHT22;22382;44.768;17.206;2024-01-06T07:47:26;9.00;99.90
36352;DHT22;22382;44.768;17.206;2024-01-06T07:49:53;9.10;99.90
36352;DHT22;22382;44.768;17.206;2024-01-06T07:52:21;9.10;99.90
36352;DHT22;22382;44.768;17.206;2024-01-06T07:54:48;9.20;99.90
36352;DHT22;22382;44.768;17.206;2024-01-06T07:57:16;9.10;99.90
36352;DHT22;22382;44.768;17.206;2024-01-06T07:59:44;9.20;99.90
36352;DHT22;22382;44.768;17.206;2024-01-06T08:02:11;9.20;99.90
36352;DHT22;22382;44.768;17.206;2024-01-06T08:04:38;9.30;99.90
36352;DHT22;22382;44.768;17.206;2024-01-06T08:07:05;9.30;99.90
36352;DHT22;22382;44.768;17.206;2024-01-06T08:09:33;9.40;99.90
36352;DHT22;22382;44.768;17.206;2024-01-06T08:12:00;9.40;99.90
36352;DHT22;22382;44.768;17.206;2024-01-06T08:14:27;9.50;99.90
36352;DHT22;22382;44.768;17.206;2024-01-06T08:16:54;9.50;99.90
36352;DHT22;22382;44.768;17.206;2024-01-06T08:19:21;9.50;99.90
36352;DHT22;22382;44.768;17.206;2024-01-06T08:21:48;9.60;99.90
36352;DHT22;22382;44.768;17.206;2024-01-06T08:24:16;9.60;99.90
36352;DHT22;22382;44.768;17.206;2024-01-06T08:26:43;9.60;99.90
36352;DHT22;22382;44.768;17.206;2024-01-06T08:29:11;9.70;99.90
36352;DHT22;22382;44.768;17.206;2024-01-06T08:31:39;9.70;99.90
36352;DHT22;22382;44.768;17.206;2024-01-06T08:34:06;9.80;99.90
36352;DHT22;22382;44.768;17.206;2024-01-06T08:36:35;9.80;99.90
36352;DHT22;22382;44.768;17.206;2024-01-06T08:39:02;9.90;99.90
36352;DHT22;22382;44.768;17.206;2024-01-06T08:41:29;10.00;99.90
36352;DHT22;22382;44.768;17.206;2024-01-06T08:43:56;10.00;99.90
36352;DHT22;22382;44.768;17.206;2024-01-06T08:46:24;10.00;99.90
36352;DHT22;22382;44.768;17.206;2024-01-06T08:48:51;10.10;99.90
36352;DHT22;22382;44.768;17.206;2024-01-06T08:51:18;10.10;99.90
36352;DHT22;22382;44.768;17.206;2024-01-06T08:53:47;10.10;99.90
36352;DHT22;22382;44.768;17.206;2024-01-06T08:56:14;10.10;99.90
36352;DHT22;22382;44.768;17.206;2024-01-06T08:58:43;10.20;99.90
36352;DHT22;22382;44.768;17.206;2024-01-06T09:01:10;10.10;99.90
36352;DHT22;22382;44.768;17.206;2024-01-06T09:03:38;10.10;99.90
36352;DHT22;22382;44.768;17.206;2024-01-06T09:06:05;10.20;99.90
36352;DHT22;22382;44.768;17.206;2024-01-06T09:08:32;10.20;99.90
36352;DHT22;22382;44.768;17.206;2024-01-06T09:11:00;10.30;99.90
36352;DHT22;22382;44.768;17.206;2024-01-06T09:13:27;10.40;99.90
36352;DHT22;22382;44.768;17.206;2024-01-06T09:15:54;10.20;99.90
36352;DHT22;22382;44.768;17.206;2024-01-06T09:18:23;10.30;99.90
36352;DHT22;22382;44.768;17.206;2024-01-06T09:20:51;10.40;99.90
36352;DHT22;22382;44.768;17.206;2024-01-06T09:23:19;10.40;99.90
36352;DHT22;22382;44.768;17.206;2024-01-06T09:25:49;10.50;99.90
36352;DHT22;22382;44.768;17.206;2024-01-06T09:28:19;10.60;99.90
36352;DHT22;22382;44.768;17.206;2024-01-06T09:30:47;10.70;99.90
36352;DHT22;22382;44.768;17.206;2024-01-06T09:33:15;10.80;99.90
36352;DHT22;22382;44.768;17.206;2024-01-06T09:35:46;10.90;99.90
36352;DHT22;22382;44.768;17.206;2024-01-06T09:38:13;10.80;99.90
36352;DHT22;22382;44.768;17.206;2024-01-06T09:40:42;10.80;99.90
36352;DHT22;22382;44.768;17.206;2024-01-06T09:43:11;10.80;99.90
36352;DHT22;22382;44.768;17.206;2024-01-06T09:45:39;10.80;99.90
36352;DHT22;22382;44.768;17.206;2024-01-06T09:48:17;10.70;99.90
36352;DHT22;22382;44.768;17.206;2024-01-06T09:50:44;10.80;99.90
36352;DHT22;22382;44.768;17.206;2024-01-06T09:53:13;10.80;99.90
36352;DHT22;22382;44.768;17.206;2024-01-06T09:55:41;10.90;99.90
36352;DHT22;22382;44.768;17.206;2024-01-06T09:58:09;11.00;99.90
36352;DHT22;22382;44.768;17.206;2024-01-06T10:00:37;11.00;99.90
36352;DHT22;22382;44.768;17.206;2024-01-06T10:03:04;11.10;99.90
36352;DHT22;22382;44.768;17.206;2024-01-06T10:05:34;11.20;99.90
36352;DHT22;22382;44.768;17.206;2024-01-06T10:08:03;11.10;99.90
36352;DHT22;22382;44.768;17.206;2024-01-06T10:10:33;11.20;99.90
36352;DHT22;22382;44.768;17.206;2024-01-06T10:13:01;11.20;99.90
36352;DHT22;22382;44.768;17.206;2024-01-06T10:15:28;11.10;99.90
36352;DHT22;22382;44.768;17.206;2024-01-06T10:17:55;11.10;99.90
36352;DHT22;22382;44.768;17.206;2024-01-06T10:20:23;11.10;99.90
36352;DHT22;22382;44.768;17.206;2024-01-06T10:22:51;11.30;99.90
36352;DHT22;22382;44.768;17.206;2024-01-06T10:25:18;11.20;99.90
36352;DHT22;22382;44.768;17.206;2024-01-06T10:27:45;11.20;99.90
36352;DHT22;22382;44.768;17.206;2024-01-06T10:30:12;11.30;99.90
36352;DHT22;22382;44.768;17.206;2024-01-06T10:32:41;11.40;99.90
36352;DHT22;22382;44.768;17.206;2024-01-06T10:35:09;11.40;99.90
36352;DHT22;22382;44.768;17.206;2024-01-06T10:37:37;11.30;99.90
36352;DHT22;22382;44.768;17.206;2024-01-06T10:40:12;11.40;99.90
36352;DHT22;22382;44.768;17.206;2024-01-06T10:42:40;11.40;99.90
36352;DHT22;22382;44.768;17.206;2024-01-06T10:45:11;11.50;99.90
36352;DHT22;22382;44.768;17.206;2024-01-06T10:47:41;11.50;99.90
36352;DHT22;22382;44.768;17.206;2024-01-06T10:50:10;11.50;99.90
36352;DHT22;22382;44.768;17.206;2024-01-06T10:52:41;11.50;99.90
36352;DHT22;22382;44.768;17.206;2024-01-06T10:55:08;11.60;99.90
36352;DHT22;22382;44.768;17.206;2024-01-06T10:57:38;11.70;99.90
36352;DHT22;22382;44.768;17.206;2024-01-06T11:00:06;11.70;99.90
36352;DHT22;22382;44.768;17.206;2024-01-06T11:02:34;11.90;99.90
36352;DHT22;22382;44.768;17.206;2024-01-06T11:05:02;11.90;99.90
36352;DHT22;22382;44.768;17.206;2024-01-06T11:07:29;12.00;99.90
36352;DHT22;22382;44.768;17.206;2024-01-06T11:09:57;12.10;99.90
36352;DHT22;22382;44.768;17.206;2024-01-06T11:12:29;12.20;99.90
36352;DHT22;22382;44.768;17.206;2024-01-06T11:14:56;12.40;99.90
36352;DHT22;22382;44.768;17.206;2024-01-06T11:17:55;12.50;99.90
36352;DHT22;22382;44.768;17.206;2024-01-06T11:20:25;12.80;99.90
36352;DHT22;22382;44.768;17.206;2024-01-06T11:22:53;13.10;99.90
36352;DHT22;22382;44.768;17.206;2024-01-06T11:25:22;13.30;99.90
36352;DHT22;22382;44.768;17.206;2024-01-06T11:27:50;13.40;99.90
36352;DHT22;22382;44.768;17.206;2024-01-06T11:30:22;13.50;99.90
36352;DHT22;22382;44.768;17.206;2024-01-06T11:32:55;13.70;99.90
36352;DHT22;22382;44.768;17.206;2024-01-06T11:35:30;13.80;99.90
36352;DHT22;22382;44.768;17.206;2024-01-06T11:38:00;13.80;99.90
36352;DHT22;22382;44.768;17.206;2024-01-06T11:40:33;14.00;99.90
36352;DHT22;22382;44.768;17.206;2024-01-06T11:43:04;14.20;99.90
36352;DHT22;22382;44.768;17.206;2024-01-06T11:45:34;14.20;99.90
36352;DHT22;22382;44.768;17.206;2024-01-06T11:48:03;14.30;99.90
36352;DHT22;22382;44.768;17.206;2024-01-06T11:50:33;14.20;99.90
36352;DHT22;22382;44.768;17.206;2024-01-06T11:53:02;14.20;99.90
36352;DHT22;22382;44.768;17.206;2024-01-06T11:55:29;14.20;99.90
36352;DHT22;22382;44.768;17.206;2024-01-06T11:58:00;14.20;99.90
36352;DHT22;22382;44.768;17.206;2024-01-06T12:00:32;14.10;99.90
36352;DHT22;22382;44.768;17.206;2024-01-06T12:03:00;13.90;99.90
36352;DHT22;22382;44.768;17.206;2024-01-06T12:05:28;13.90;99.90
36352;DHT22;22382;44.768;17.206;2024-01-06T12:08:00;13.60;99.90
36352;DHT22;22382;44.768;17.206;2024-01-06T12:10:29;13.60;99.90
36352;DHT22;22382;44.768;17.206;2024-01-06T12:13:01;13.60;99.90
36352;DHT22;22382;44.768;17.206;2024-01-06T12:15:32;13.40;99.90
36352;DHT22;22382;44.768;17.206;2024-01-06T12:18:03;13.20;99.90
36352;DHT22;22382;44.768;17.206;2024-01-06T12:20:31;13.20;99.90
36352;DHT22;22382;44.768;17.206;2024-01-06T12:22:58;13.20;99.90
36352;DHT22;22382;44.768;17.206;2024-01-06T12:25:27;13.10;99.90
36352;DHT22;22382;44.768;17.206;2024-01-06T12:27:56;12.90;99.90
36352;DHT22;22382;44.768;17.206;2024-01-06T12:30:24;12.90;99.90
36352;DHT22;22382;44.768;17.206;2024-01-06T12:32:53;12.90;99.90
36352;DHT22;22382;44.768;17.206;2024-01-06T12:35:21;12.90;99.90
36352;DHT22;22382;44.768;17.206;2024-01-06T12:37:51;13.10;99.90
36352;DHT22;22382;44.768;17.206;2024-01-06T12:40:20;13.10;99.90
36352;DHT22;22382;44.768;17.206;2024-01-06T12:42:48;13.10;99.90
36352;DHT22;22382;44.768;17.206;2024-01-06T12:45:15;13.00;99.90
36352;DHT22;22382;44.768;17.206;2024-01-06T12:47:43;13.00;99.90
36352;DHT22;22382;44.768;17.206;2024-01-06T12:50:11;12.90;99.90
36352;DHT22;22382;44.768;17.206;2024-01-06T12:52:38;12.90;99.90
36352;DHT22;22382;44.768;17.206;2024-01-06T12:55:07;12.80;99.90
36352;DHT22;22382;44.768;17.206;2024-01-06T12:57:35;12.80;99.90
36352;DHT22;22382;44.768;17.206;2024-01-06T13:00:03;12.80;99.90
36352;DHT22;22382;44.768;17.206;2024-01-06T13:02:32;12.80;99.90
36352;DHT22;22382;44.768;17.206;2024-01-06T13:05:00;12.70;99.90
36352;DHT22;22382;44.768;17.206;2024-01-06T13:07:27;12.70;99.90
36352;DHT22;22382;44.768;17.206;2024-01-06T13:09:54;12.60;99.90
36352;DHT22;22382;44.768;17.206;2024-01-06T13:12:22;12.70;99.90
36352;DHT22;22382;44.768;17.206;2024-01-06T13:14:51;12.60;99.90
36352;DHT22;22382;44.768;17.206;2024-01-06T13:17:18;12.50;99.90
36352;DHT22;22382;44.768;17.206;2024-01-06T13:19:45;12.60;99.90
36352;DHT22;22382;44.768;17.206;2024-01-06T13:22:13;12.50;99.90
36352;DHT22;22382;44.768;17.206;2024-01-06T13:24:41;12.60;99.90
36352;DHT22;22382;44.768;17.206;2024-01-06T13:27:09;12.60;99.90
36352;DHT22;22382;44.768;17.206;2024-01-06T13:29:36;12.60;99.90
36352;DHT22;22382;44.768;17.206;2024-01-06T13:32:04;12.60;99.90
36352;DHT22;22382;44.768;17.206;2024-01-06T13:34:32;12.60;99.90
36352;DHT22;22382;44.768;17.206;2024-01-06T13:36:59;12.70;99.90
36352;DHT22;22382;44.768;17.206;2024-01-06T13:39:27;12.70;99.90
36352;DHT22;22382;44.768;17.206;2024-01-06T13:41:54;12.80;99.90
36352;DHT22;22382;44.768;17.206;2024-01-06T13:44:21;12.80;99.90
36352;DHT22;22382;44.768;17.206;2024-01-06T13:46:49;12.80;99.90
36352;DHT22;22382;44.768;17.206;2024-01-06T13:49:17;12.80;99.90
36352;DHT22;22382;44.768;17.206;2024-01-06T13:51:46;12.80;99.90
36352;DHT22;22382;44.768;17.206;2024-01-06T13:54:13;12.70;99.90
36352;DHT22;22382;44.768;17.206;2024-01-06T13:56:43;12.80;99.90
36352;DHT22;22382;44.768;17.206;2024-01-06T13:59:10;12.70;99.90
36352;DHT22;22382;44.768;17.206;2024-01-06T14:01:38;12.70;99.90
36352;DHT22;22382;44.768;17.206;2024-01-06T14:04:05;12.70;99.90
36352;DHT22;22382;44.768;17.206;2024-01-06T14:06:32;12.80;99.90
36352;DHT22;22382;44.768;17.206;2024-01-06T14:09:02;12.80;99.90
36352;DHT22;22382;44.768;17.206;2024-01-06T14:11:29;12.80;99.90
36352;DHT22;22382;44.768;17.206;2024-01-06T14:13:58;12.80;99.90
36352;DHT22;22382;44.768;17.206;2024-01-06T14:16:26;12.80;99.90
36352;DHT22;22382;44.768;17.206;2024-01-06T14:18:53;12.80;99.90
36352;DHT22;22382;44.768;17.206;2024-01-06T14:21:20;12.80;99.90
36352;DHT22;22382;44.768;17.206;2024-01-06T14:23:51;12.70;99.90
36352;DHT22;22382;44.768;17.206;2024-01-06T14:26:18;12.80;99.90
36352;DHT22;22382;44.768;17.206;2024-01-06T14:28:48;12.70;99.90
36352;DHT22;22382;44.768;17.206;2024-01-06T14:31:16;12.70;99.90
36352;DHT22;22382;44.768;17.206;2024-01-06T14:33:43;12.60;99.90
36352;DHT22;22382;44.768;17.206;2024-01-06T14:36:11;12.60;99.90
36352;DHT22;22382;44.768;17.206;2024-01-06T14:38:38;12.50;99.90
36352;DHT22;22382;44.768;17.206;2024-01-06T14:41:06;12.50;99.90
36352;DHT22;22382;44.768;17.206;2024-01-06T14:43:33;12.40;99.90
36352;DHT22;22382;44.768;17.206;2024-01-06T14:46:00;12.40;99.90
36352;DHT22;22382;44.768;17.206;2024-01-06T14:48:28;12.50;99.90
36352;DHT22;22382;44.768;17.206;2024-01-06T14:50:55;12.50;99.90
36352;DHT22;22382;44.768;17.206;2024-01-06T14:53:22;12.50;99.90
36352;DHT22;22382;44.768;17.206;2024-01-06T14:55:49;12.60;99.90
36352;DHT22;22382;44.768;17.206;2024-01-06T14:58:16;12.80;99.90
36352;DHT22;22382;44.768;17.206;2024-01-06T15:00:44;13.00;99.90
36352;DHT22;22382;44.768;17.206;2024-01-06T15:03:11;13.10;99.90
36352;DHT22;22382;44.768;17.206;2024-01-06T15:05:38;13.30;99.90
36352;DHT22;22382;44.768;17.206;2024-01-06T15:08:06;13.30;99.90
36352;DHT22;22382;44.768;17.206;2024-01-06T15:10:33;13.50;99.90
36352;DHT22;22382;44.768;17.206;2024-01-06T15:13:01;13.60;99.90
36352;DHT22;22382;44.768;17.206;2024-01-06T15:15:30;13.70;99.90
36352;DHT22;22382;44.768;17.206;2024-01-06T15:17:57;13.80;99.90
36352;DHT22;22382;44.768;17.206;2024-01-06T15:20:25;14.00;99.90
36352;DHT22;22382;44.768;17.206;2024-01-06T15:22:52;14.00;99.90
36352;DHT22;22382;44.768;17.206;2024-01-06T15:25:19;14.10;99.90
36352;DHT22;22382;44.768;17.206;2024-01-06T15:27:47;14.20;99.90